Greenville, SC (29615)

7:04 AM EDT on October 02, 2014 (GMT -0400)
Merrifield Park Subdivision | Change Station
CLOSE
Current Station
Personal Weather Station
Location: Greenville, SC
Elevation: 1010 ft
Nearby Weather Stations

Elev 1010 ft 34.87 °N, 82.32 °W | Updated 2 seconds ago

Clear
Clear
60.3 °F
Feels Like 60.3 °F
N
0.0
Wind Variable Wind from ESE
Gusts 0.0 mph

Today
High -- | Low -- °F
--% Chance of Precip.
Yesterday
High -- | Low -- °F
Precip. -- in
7:24 AM 7:11 PM
First Quarter, 57% visible
Pressure 30.07 in
Visibility 10.0 miles
Clouds Clear
Dew Point 59 °F
Humidity 96%
Rainfall 0.00 in
Snow Depth Not available.
UV 0 out of 12
Pollen 5.10 out of 12
Ozone Good
PM2.5 Good
Flu Activity Not available.
METAR KGMU 021053Z 00000KT 10SM CLR 18/16 A3010 RMK AO2 SLP182 T01830156

More Conditions Fewer Conditions

Pressure 30.07 in
Visibility 10.0 miles
Clouds Clear
Dew Point 59 °F
Humidity 96%
Rainfall 0.00 in
Snow Depth Not available.
UV 0 out of 12
Pollen 5.10 out of 12
Ozone Good
PM2.5 Good
Flu Activity Not available.
METAR KGMU 021053Z 00000KT 10SM CLR 18/16 A3010 RMK AO2 SLP182 T01830156

More Conditions Fewer Conditions

10-Day Weather Forecast

Almanac

Astronomy

Oct. 02, 2014 Rise Set
Actual Time 7:24 AM EDT 7:11 PM EDT
Civil Twilight 6:59 AM EDT 7:37 PM EDT
Nautical Twilight 6:30 AM EDT 8:06 PM EDT
Astronomical Twilight 6:00 AM EDT 8:35 PM EDT
Moon 3:04 PM EDT 12:53 AM EDT
Length of Visible Light 12h 37m
Length of Day
11h 47m
Tomorrow will be 2m 8s shorter.
First Quarter, 57% of the Moon is Illuminated
Today
First Quarter
Oct 8
Full
Oct 15
Last Quarter
Oct 23
New
Oct 30
First Quarter

Today's Extremes

State Highs State Lows

Community

WunderPhotos

Upload Photos

1,758,215 photos uploaded!

WunderBlogs® & News

Nearby

Air Quality

  Air Quality AQ Index Pollutant
Yesterday Good
OZONE
Yesterday Good
PM2.5
Current Good
PM2.5
Current Good
OZONE

Snow Depth

Station Depth Elevation
No new snow has been reported.

Earthquake Activity

City Distance Mag. Time & Date
No recent earthquake activity has been reported nearby.
Minimum magnitude displayed is 2.5.

Coastal Water Temperatures

Place Temperature
No Stations Reporting

Nearby Weather Stations